Архив погоды в Ветлуге

Метеограмма Ветлуга
Пятница, 24 Мая
Время местн. Темп Ветер Видим Явления Облачность нижн/средн/верх Атм. давл. Влжн Точка росы ВНГО R Сост. почвы Tg s
Напр Скр Прв ур.ст ур.м изм
09:00 +6.7° С 4 7 20 км - переменная облачность 749 762 +0.9 47% -3.8° 1 км - - - -
06:00 +1.9° С 2 4 20 км - ясно 748 761 +1.4 71% -2.8° более 2.5 км - Влажная (без луж) - -
03:00 С 2 3 20 км - ясно 747 760 +0.9 84% -2.4° более 2.5 км - - - -
00:00 +2.7° С 2 4 20 км - ясно 746 759 +1.7 77% -0.9° более 2.5 км - - - -
Четверг, 23 Мая
Время местн. Темп Ветер Видим Явления Облачность нижн/средн/верх Атм. давл. Влжн Точка росы ВНГО R Сост. почвы Tg s
Напр Скр Прв ур.ст ур.м изм
21:00 +5.3° С 2 3 20 км небо без изменений {ливневые осадки} облачно с прояснениями 744 757 +2.2 83% +2.6° 1 км - - - -
18:00 +8.4° С 4 6 20 км ливневый дождь облачно 742 754 +1.6 89% +6.7° 1 км - - - -
15:00 +11.3° С,С-В 5 9 20 км слабый ливневый дождь облачно 741 753 +0.2 90% +9.7° 1 км - - - -
12:00 +15.1° З 2 4 20 км - облачно 740 752 -0.5 68% +9.3° 1 км - - - -
09:00 +12.6° З 1 2 20 км небо без изменений {морось} облачно 741 753 -1.2 86% +10.3° 600 м - - - -
06:00 +9.6° Ю 1 2 4 км небо без изменений {морось} облачно 742 754 -1.4 96% +9° 600 м - Сухая (без трещин) - -
03:00 +7.6° штиль 0 0 20 км - облачно 744 756 -1.2 96% +7° 1 км - - - -
00:00 +7.8° штиль 0 0 20 км - переменная облачность 745 757 -0.9 95% +7° 1 км - - - -
Среда, 22 Мая
Время местн. Темп Ветер Видим Явления Облачность нижн/средн/верх Атм. давл. Влжн Точка росы ВНГО R Сост. почвы Tg s
Напр Скр Прв ур.ст ур.м изм
21:00 +10.8° Ю 1 2 20 км - переменная облачность 746 758 -0.5 83% +8° 1 км - - - -
18:00 +15° Ю-З 2 5 20 км - облачно с прояснениями 746 758 -1.1 65% +8.5° 1 км - - - -
15:00 +16.4° Ю-З 3 5 20 км - преимущественно облачно 747 759 -0.8 56% +7.7° 600 м - - - -
12:00 +14.2° Ю 2 4 20 км - облачно 748 760 -0.7 67% +8.2° 1 км - - - -
09:00 +13.6° Ю,Ю-З 2 4 20 км - преимущественно облачно 749 761 -0.9 67% +7.7° 1 км - - - -
06:00 +10.1° Ю-З 1 2 20 км - преимущественно облачно 750 762 -0.4 75% +5.9° 1 км - Сухая (без трещин) - -
03:00 +6.7° штиль 0 0 20 км - преимущественно облачно 750 762 -0.5 75% +2.6° 1 км - - - -
00:00 +9.5° З 1 2 20 км - облачно 750 763 -0.5 57% +1.5° 1 км - - - -
Вторник, 21 Мая
Время местн. Темп Ветер Видим Явления Облачность нижн/средн/верх Атм. давл. Влжн Точка росы ВНГО R Сост. почвы Tg s
Напр Скр Прв ур.ст ур.м изм
21:00 +11.7° штиль 0 0 20 км - облачно с прояснениями 751 763 -0.2 42% -0.9° 1 км - - - -
18:00 +17.2° З 1 3 20 км - облачно с прояснениями 751 763 -0.9 24% -3.8° 1 км - - - -
15:00 +17.3° С-З 3 7 20 км - переменная облачность 752 764 -1 23% -4.1° 1 км - - - -
12:00 +15.7° С 2 4 20 км - переменная облачность 753 765 -1.1 26% -3.6° 1 км - - - -
09:00 +12.6° С 2 5 20 км - переменная облачность 754 766 0 35% -2.5° более 2.5 км - - - -
06:00 +4.9° С-З 1 2 20 км - переменная облачность 754 767 +0.6 62% -1.7° 1 км - Влажная (без луж) - -